Airfield :
LOGIN :

Register | Disclaimer

   EN    FR    IT 

 










Legend :    VFR   Marginal VFR   IFR   Intensive IFR   Very Intensive IFR
Visi :
Ceiling :
>= 8 km
>= 3000ft
5 to 8 km
1000 to 3000 ft
1500m to 5 km
500 to 1000 ft
800 to 1500m
200 to 500 ft
< 800m
< 200 ft
Symbols :   Thunderstorms  Fog  Heavy snow  Heavy precipitations  Wind > 20 kt
SIGMETs :     Misc.  Thunderstorms  Icing  Turbulence  Mountain Waves  Volcanic Ashes







- Airport Elevation : 74 ft
- IATA code : NDZ


ETMN - Cuxhaven Nordholz Sea AB

CURRENT METAR :
  • 260620Z 25012KT 9999 BKN013 SCT025TCU 09/06 Q1009 GRN BLU+ TEMPO GRN

EXPIRED METARs :
  • 260536Z 26012KT 9999 BKN013 FEW025TCU BKN070 08/06 Q1009 GRN BLU+ TEMPO GRN
  • 260518Z 25010KT 9999 BKN020 FEW025TCU BKN070 08/06 Q1008 WHT BLU+ TEMPO GRN
  • 260504Z 25008KT 9999 BKN010 BKN070 08/07 Q1008 GRN BLU+ TEMPO GRN
  • 260420Z 23005KT 9999 FEW010 SCT038 07/05 Q1008 BLU+BLU+ TEMPO GRN

TAF TAF ETMN
Valid from the 26 at 05:00 until the 26 at 14:00 UTC


260425Z 2605/2614 26012G25KT 9999 NSW SCT015 SCT030
TEMPO 2605/2614 26015G28KT 4500 SHRA BKN010 BKN015CB
PROB30 2606/2614 27020G33KT 3000 TSRA BKN007 BKN015CB
No reported NOTAMs for that airfield.



MET'MAP, your aeronautical weather chart ! - Copyright ORBIFLY December 2007 - Disclaimer

ORBIFLY MET'MAP TEAM :

Programming & Development : Alexandra Zaïnal
Concept & Development : Baudouin d'Aumeries
Co-Development & Prog : Marc-Olivier Méhu
Technical & hardware support : Manuel Goepfert

Contact : metmap@orbifly.com




SOURCES & CREDITS :

   NOAA